Time;durP1;ratioP1;P1;durP2;ratioP2;P2;SDS_P1;SDS_P2;PMS_P1;PMS_P2;Temp;Humidity;BMP_temperature;BMP_pressure;BME280_temperature;BME280_humidity;BME280_pressure;Samples;Min_cycle;Max_cycle;Signal;HPM_P1;HPM_P2
2023/10/13 06:34:03;;;;;;;5.70;3.40;;;;;;;17.16;57.10;100489.91;5027020;28;20075;-79
2023/10/13 06:36:33;;;;;;;5.82;3.65;;;;;;;17.19;57.24;100492.31;5028993;28;20429;-86
2023/10/13 06:41:43;;;;;;;6.43;4.10;;;;;;;17.22;57.30;100451.34;5026485;28;20045;-84
2023/10/13 06:44:16;;;;;;;7.65;4.45;;;;;;;17.27;57.26;100446.09;5028118;28;20060;-85
2023/10/13 06:46:44;;;;;;;7.05;5.03;;;;;;;17.29;57.26;100452.28;5024689;28;20398;-85
2023/10/13 06:49:14;;;;;;;7.43;5.10;;;;;;;17.33;57.28;100458.28;5025558;28;21158;-85
2023/10/13 06:51:42;;;;;;;7.10;4.25;;;;;;;17.35;57.36;100458.97;5024021;28;20095;-84
2023/10/13 06:54:11;;;;;;;7.72;5.63;;;;;;;17.35;57.72;100448.75;5027665;28;20104;-84
2023/10/13 06:56:40;;;;;;;7.38;4.95;;;;;;;17.37;57.71;100459.66;5025425;28;20122;-84
2023/10/13 06:59:08;;;;;;;7.45;4.90;;;;;;;17.40;57.40;100467.59;5031121;28;20544;-85
2023/10/13 07:01:40;;;;;;;8.55;5.13;;;;;;;17.42;57.30;100467.38;5032744;28;20108;-86
2023/10/13 07:04:13;;;;;;;7.20;5.55;;;;;;;17.42;57.46;100464.59;5030527;28;20111;-86
2023/10/13 07:06:48;;;;;;;7.82;4.65;;;;;;;17.46;57.41;100463.19;5029338;28;20055;-86
2023/10/13 07:09:39;;;;;;;6.80;4.88;;;;;;;17.44;57.88;100451.44;5030760;28;20061;-85
2023/10/13 07:12:16;;;;;;;9.48;5.25;;;;;;;17.45;57.69;100451.25;5028406;28;20390;-84
2023/10/13 07:14:59;;;;;;;6.78;5.07;;;;;;;17.49;57.94;100460.88;5027863;28;20057;-85
2023/10/13 07:17:32;;;;;;;7.13;5.10;;;;;;;17.48;57.64;100461.97;5045246;28;20447;-85
2023/10/13 07:20:15;;;;;;;7.97;4.97;;;;;;;17.50;57.49;100456.22;5028885;28;20052;-85
2023/10/13 07:22:54;;;;;;;8.45;5.32;;;;;;;17.49;57.61;100449.81;5030055;28;20059;-85
2023/10/13 07:25:25;;;;;;;9.63;4.80;;;;;;;17.51;57.80;100450.50;5031867;28;20378;-85
2023/10/13 07:27:56;;;;;;;7.70;5.07;;;;;;;17.54;57.34;100441.84;5050830;28;20048;-85
2023/10/13 07:30:28;;;;;;;8.02;4.57;;;;;;;17.53;57.70;100439.25;5034825;28;20436;-85
2023/10/13 07:32:59;;;;;;;6.85;5.10;;;;;;;17.55;57.62;100443.56;5028196;28;20068;-84
2023/10/13 07:35:31;;;;;;;9.70;5.13;;;;;;;17.55;57.75;100451.00;5027136;28;20416;-85
2023/10/13 07:38:01;;;;;;;7.47;4.72;;;;;;;17.59;57.69;100446.78;5024194;28;20080;-85
2023/10/13 07:40:50;;;;;;;6.43;4.90;;;;;;;17.54;57.89;100441.84;5025083;28;20077;-84
2023/10/13 07:43:21;;;;;;;8.80;4.57;;;;;;;17.58;57.86;100445.06;5024369;28;20613;-84
2023/10/13 07:45:58;;;;;;;7.15;4.00;;;;;;;17.57;57.68;100443.34;5022226;28;20108;-84
2023/10/13 07:48:26;;;;;;;6.32;3.75;;;;;;;17.59;57.81;100439.34;5023505;28;20456;-83
2023/10/13 07:51:02;;;;;;;7.10;4.55;;;;;;;17.64;58.26;100439.66;5022304;28;20132;-84
2023/10/13 07:53:35;;;;;;;7.68;4.35;;;;;;;17.67;57.92;100432.84;5023646;28;20059;-84
2023/10/13 07:56:05;;;;;;;7.80;4.32;;;;;;;17.65;57.65;100424.72;5022925;28;20064;-84
2023/10/13 07:58:34;;;;;;;7.75;4.38;;;;;;;17.67;58.14;100428.19;5023837;28;20057;-84
2023/10/13 08:01:08;;;;;;;7.18;4.55;;;;;;;17.69;58.11;100415.00;5030246;28;20048;-84
2023/10/13 08:03:44;;;;;;;8.43;4.78;;;;;;;17.73;57.78;100418.28;5015332;28;20117;-85
2023/10/13 08:06:28;;;;;;;6.82;4.60;;;;;;;17.74;58.19;100420.84;5009309;28;20427;-85
2023/10/13 08:09:07;;;;;;;8.48;4.75;;;;;;;17.79;57.93;100416.66;5046164;28;20562;-85
2023/10/13 08:11:43;;;;;;;7.20;4.63;;;;;;;17.81;58.08;100415.44;5028401;28;20509;-84
2023/10/13 08:14:12;;;;;;;7.88;4.72;;;;;;;17.82;57.97;100402.41;5029036;28;20684;-84
2023/10/13 08:17:00;;;;;;;7.47;4.65;;;;;;;17.83;57.87;100401.38;5029405;28;20051;-83
2023/10/13 08:19:39;;;;;;;7.35;4.45;;;;;;;17.87;57.75;100397.19;5030828;28;20049;-84
2023/10/13 08:22:24;;;;;;;7.30;4.65;;;;;;;17.86;57.80;100388.03;5036195;28;20374;-84
2023/10/13 08:25:14;;;;;;;9.80;4.80;;;;;;;17.91;57.97;100396.59;5019724;28;20049;-84
2023/10/13 08:30:29;;;;;;;8.45;4.55;;;;;;;17.94;58.08;100404.53;4977994;28;20050;-83
2023/10/13 08:32:58;;;;;;;7.25;4.15;;;;;;;17.97;58.18;100401.38;5008038;28;20060;-84
2023/10/13 08:35:34;;;;;;;11.10;4.13;;;;;;;18.03;58.45;100399.72;5010301;28;20471;-84
2023/10/13 08:38:13;;;;;;;9.30;4.25;;;;;;;18.08;58.47;100402.75;5027780;28;20548;-84
2023/10/13 08:43:51;;;;;;;6.40;4.03;;;;;;;18.18;58.49;100414.41;5045538;28;20938;-85
2023/10/13 08:46:29;;;;;;;7.20;3.90;;;;;;;18.25;58.61;100400.63;5030282;28;20167;-84
2023/10/13 08:49:14;;;;;;;6.63;3.60;;;;;;;18.31;58.58;100386.84;5029627;28;20056;-85
2023/10/13 08:51:48;;;;;;;8.75;3.92;;;;;;;18.40;58.69;100387.56;5019694;28;20115;-84
2023/10/13 08:54:20;;;;;;;8.05;4.22;;;;;;;18.47;58.57;100378.25;5007122;28;20038;-85
2023/10/13 08:56:56;;;;;;;7.53;3.80;;;;;;;18.54;58.41;100383.94;5009972;28;20060;-84
2023/10/13 08:59:33;;;;;;;9.27;4.07;;;;;;;18.62;58.43;100381.03;5028513;28;20488;-84
2023/10/13 09:02:15;;;;;;;7.63;3.53;;;;;;;18.70;58.42;100378.13;5027984;28;20095;-85
2023/10/13 09:04:44;;;;;;;7.22;4.07;;;;;;;18.78;58.31;100383.53;5029011;28;20049;-85
2023/10/13 09:07:21;;;;;;;8.15;3.83;;;;;;;18.86;58.04;100383.38;5027815;28;20748;-84
2023/10/13 09:09:59;;;;;;;7.38;3.60;;;;;;;18.95;57.68;100364.69;5031053;28;20116;-85
2023/10/13 09:12:38;;;;;;;7.32;3.58;;;;;;;19.01;57.90;100365.78;5037265;28;20064;-84
2023/10/13 09:15:30;;;;;;;7.60;3.70;;;;;;;19.07;57.89;100368.59;5025729;28;20518;-83
2023/10/13 09:18:12;;;;;;;6.25;3.47;;;;;;;19.11;58.00;100358.84;5040541;28;20129;-83
2023/10/13 09:20:45;;;;;;;8.10;3.75;;;;;;;19.19;57.68;100355.06;5029819;28;20057;-83
2023/10/13 09:23:23;;;;;;;6.40;3.70;;;;;;;19.29;57.20;100344.50;5029199;28;20053;-83
2023/10/13 09:25:57;;;;;;;8.27;3.40;;;;;;;19.35;57.05;100349.22;5027572;28;20067;-82
2023/10/13 09:28:31;;;;;;;7.82;3.78;;;;;;;19.42;56.07;100344.56;5025816;28;20073;-83
2023/10/13 09:30:58;;;;;;;8.05;3.88;;;;;;;19.49;56.14;100339.88;5025854;28;20094;-82
2023/10/13 09:33:32;;;;;;;7.10;3.70;;;;;;;19.57;55.86;100336.94;5048104;28;20056;-83
2023/10/13 09:36:00;;;;;;;7.10;3.75;;;;;;;19.62;55.62;100325.25;5042300;28;20040;-83
2023/10/13 09:38:29;;;;;;;7.15;4.18;;;;;;;19.72;55.10;100334.00;5032769;28;20063;-83
2023/10/13 09:40:58;;;;;;;7.38;3.72;;;;;;;19.78;54.74;100329.56;5035098;28;20461;-84
2023/10/13 09:43:28;;;;;;;7.78;3.47;;;;;;;19.85;54.71;100328.53;5035292;28;20098;-83
2023/10/13 09:46:04;;;;;;;8.73;4.20;;;;;;;19.92;54.34;100323.88;5038069;28;20489;-84
2023/10/13 09:48:33;;;;;;;7.20;3.67;;;;;;;19.98;54.48;100331.38;5034800;28;20053;-83
2023/10/13 09:51:04;;;;;;;6.53;3.80;;;;;;;20.07;54.33;100315.38;5034118;28;20068;-83
2023/10/13 09:53:32;;;;;;;8.45;3.92;;;;;;;20.12;54.19;100303.66;5034347;28;20049;-84
2023/10/13 09:56:13;;;;;;;6.65;4.13;;;;;;;20.21;53.09;100306.00;5035624;28;20484;-83
2023/10/13 09:58:54;;;;;;;9.00;3.80;;;;;;;20.29;52.18;100314.13;5053595;28;20527;-84
2023/10/13 10:01:33;;;;;;;7.25;4.22;;;;;;;20.36;52.93;100306.69;5037902;28;20053;-84
2023/10/13 10:04:08;;;;;;;8.32;3.95;;;;;;;20.44;52.09;100304.78;5036191;28;20056;-83
2023/10/13 10:06:40;;;;;;;8.18;4.18;;;;;;;20.49;52.73;100322.50;5035440;28;20678;-82
2023/10/13 10:09:11;;;;;;;6.90;3.92;;;;;;;20.54;52.48;100313.53;5036564;28;20552;-83
2023/10/13 10:12:09;;;;;;;5.78;3.65;;;;;;;20.61;50.98;100303.31;5032080;28;20100;-82
2023/10/13 10:14:56;;;;;;;7.28;4.50;;;;;;;20.69;51.17;100317.88;5036888;28;20074;-83
2023/10/13 10:17:29;;;;;;;8.68;4.30;;;;;;;20.70;51.70;100311.22;5038815;28;20091;-84
2023/10/13 10:19:57;;;;;;;6.78;3.95;;;;;;;20.77;51.18;100312.09;5035960;28;20130;-83
2023/10/13 10:22:30;;;;;;;7.75;4.20;;;;;;;20.83;50.85;100312.28;5035574;28;20519;-83
2023/10/13 10:24:59;;;;;;;7.78;4.63;;;;;;;20.85;50.30;100316.56;5033213;28;20302;-83
2023/10/13 10:27:30;;;;;;;7.13;4.32;;;;;;;20.87;49.83;100311.63;5034021;28;20708;-83
2023/10/13 10:30:01;;;;;;;8.82;4.82;;;;;;;20.92;49.54;100309.06;5036584;28;20063;-83
2023/10/13 10:32:37;;;;;;;6.88;4.45;;;;;;;20.96;48.12;100292.78;5034249;28;20127;-82
2023/10/13 10:35:14;;;;;;;6.30;4.55;;;;;;;20.96;48.25;100292.78;5038263;28;20048;-83
2023/10/13 10:37:47;;;;;;;7.25;4.30;;;;;;;20.98;48.97;100277.59;5033462;28;20052;-83
2023/10/13 10:43:00;;;;;;;7.30;4.60;;;;;;;21.01;49.10;100279.09;5036074;28;20045;-84
2023/10/13 10:45:45;;;;;;;7.28;4.50;;;;;;;21.06;48.04;100276.50;5033729;28;20049;-84
2023/10/13 10:48:17;;;;;;;7.78;5.05;;;;;;;21.07;48.22;100279.09;5038264;28;20048;-84
2023/10/13 10:50:53;;;;;;;7.90;4.70;;;;;;;21.12;47.29;100298.75;5057275;28;20071;-85
2023/10/13 10:53:33;;;;;;;8.00;5.03;;;;;;;21.13;48.37;100272.66;5043563;28;20531;-85
2023/10/13 11:08:08;;;;;;;7.43;4.40;;;;;;;21.32;47.05;100256.16;5023708;28;20140;-83
2023/10/13 11:14:13;;;;;;;8.02;4.55;;;;;;;21.40;47.18;100258.69;5051649;28;20049;-84
2023/10/13 11:16:50;;;;;;;9.20;4.47;;;;;;;21.44;47.04;100237.66;5031201;28;20470;-83
2023/10/13 11:19:25;;;;;;;8.95;4.60;;;;;;;21.45;46.95;100231.03;5051396;28;20111;-84
2023/10/13 11:21:55;;;;;;;7.25;4.38;;;;;;;21.48;46.35;100225.88;5032438;28;20102;-83
2023/10/13 11:24:25;;;;;;;7.05;4.30;;;;;;;21.53;46.33;100228.84;5032325;28;20096;-84
2023/10/13 11:27:43;;;;;;;7.05;4.18;;;;;;;21.57;45.24;100231.19;5019840;28;20061;-83
2023/10/13 11:30:14;;;;;;;10.15;4.60;;;;;;;21.56;46.33;100226.69;5020342;28;20306;-83
2023/10/13 11:32:46;;;;;;;7.03;4.20;;;;;;;21.57;45.64;100220.91;5030213;28;20055;-83
2023/10/13 11:51:32;;;;;;;9.18;3.60;;;;;;;21.63;45.13;100186.59;5001606;28;20477;-84
2023/10/13 11:54:01;;;;;;;10.40;4.40;;;;;;;21.70;44.60;100176.28;5056582;28;20574;-83
2023/10/13 12:52:47;;;;;;;8.00;3.33;;;;;;;21.89;42.66;100153.00;5016348;28;20950;-77
2023/10/13 12:55:19;;;;;;;9.05;3.97;;;;;;;21.91;42.70;100140.81;5010617;27;20514;-77
2023/10/13 12:57:47;;;;;;;7.15;3.78;;;;;;;21.91;42.69;100130.53;4951384;28;20145;-78
2023/10/13 13:00:23;;;;;;;6.93;3.58;;;;;;;21.96;42.58;100149.34;4948665;28;21232;-78
2023/10/13 13:02:55;;;;;;;8.43;3.65;;;;;;;21.97;42.64;100159.41;4982746;28;20063;-78
2023/10/13 13:05:28;;;;;;;8.63;3.78;;;;;;;21.95;42.61;100151.28;4955200;28;20247;-77
2023/10/13 13:07:58;;;;;;;8.65;3.88;;;;;;;22.00;42.19;100157.03;4967476;28;20055;-77
2023/10/13 13:10:35;;;;;;;7.85;3.70;;;;;;;21.99;42.26;100148.91;4965950;28;20059;-77
2023/10/13 13:13:05;;;;;;;7.72;3.60;;;;;;;21.99;42.25;100160.91;4981780;28;19937;-77
2023/10/13 13:15:33;;;;;;;8.23;3.78;;;;;;;21.99;41.91;100155.34;4983047;28;20058;-78
2023/10/13 13:18:09;;;;;;;10.57;4.20;;;;;;;22.00;42.00;100150.63;4980205;28;20106;-77
2023/10/13 13:20:43;;;;;;;10.10;4.20;;;;;;;22.00;42.00;100150.63;4962327;28;20537;-78
2023/10/13 13:23:12;;;;;;;8.55;3.95;;;;;;;22.01;41.90;100149.53;4967115;28;20070;-78
2023/10/13 13:25:46;;;;;;;9.35;3.83;;;;;;;22.01;41.66;100166.25;4963882;28;20130;-77
2023/10/13 13:28:15;;;;;;;8.00;3.63;;;;;;;22.01;41.72;100142.03;4956550;28;20063;-77
2023/10/13 13:30:43;;;;;;;9.55;3.63;;;;;;;22.01;41.60;100158.75;4951900;28;20716;-77
2023/10/13 13:33:16;;;;;;;7.57;3.80;;;;;;;22.01;41.36;100150.41;4971970;28;20165;-76
2023/10/13 13:35:44;;;;;;;9.65;3.88;;;;;;;22.01;41.39;100152.31;4949906;28;20112;-78
2023/10/13 13:38:22;;;;;;;7.72;4.05;;;;;;;22.02;41.27;100146.50;4950459;28;20098;-77
2023/10/13 13:40:53;;;;;;;7.15;3.83;;;;;;;22.01;41.29;100155.13;4949244;28;20061;-76
2023/10/13 13:43:50;;;;;;;9.40;4.40;;;;;;;21.99;41.26;100151.69;4982344;28;20052;-77
2023/10/13 13:46:24;;;;;;;7.22;3.60;;;;;;;21.99;41.22;100149.75;4962060;28;20050;-77
2023/10/13 13:48:58;;;;;;;7.63;3.40;;;;;;;21.98;41.14;100136.03;4953380;28;20070;-76
2023/10/13 13:51:27;;;;;;;8.80;3.30;;;;;;;21.99;40.86;100135.84;4964377;28;20698;-75
2023/10/13 13:53:57;;;;;;;9.07;3.60;;;;;;;22.00;40.66;100137.53;4979223;28;20152;-77
2023/10/13 13:56:28;;;;;;;8.98;3.65;;;;;;;21.98;40.92;100139.69;4962735;28;20991;-77
2023/10/13 13:58:56;;;;;;;8.85;4.03;;;;;;;21.96;40.73;100133.47;4947722;28;20413;-78
2023/10/13 14:01:25;;;;;;;7.95;4.03;;;;;;;21.95;40.64;100131.78;4950401;28;20250;-78
2023/10/13 14:03:56;;;;;;;8.15;3.85;;;;;;;21.95;40.68;100125.34;4936652;28;20135;-77
2023/10/13 14:06:26;;;;;;;8.63;3.70;;;;;;;21.92;40.69;100129.47;4967852;28;20048;-77
2023/10/13 14:08:59;;;;;;;9.23;4.00;;;;;;;21.95;40.69;100130.91;4935965;28;20062;-78
2023/10/13 14:14:32;;;;;;;8.35;3.60;;;;;;;21.91;40.50;100135.25;4983977;28;20059;-76
2023/10/13 14:17:07;;;;;;;8.73;3.85;;;;;;;21.88;40.53;100131.81;5000417;28;20067;-78
2023/10/13 14:19:40;;;;;;;6.35;3.33;;;;;;;21.88;40.59;100130.94;4955129;28;20051;-76
2023/10/13 14:22:12;;;;;;;8.13;3.80;;;;;;;21.86;40.18;100125.59;4959215;28;20067;-76
2023/10/13 14:24:47;;;;;;;10.18;3.42;;;;;;;21.87;40.24;100121.72;4969147;28;20119;-77
2023/10/13 14:27:17;;;;;;;6.97;3.75;;;;;;;21.84;40.31;100130.56;4958651;28;20055;-78
2023/10/13 14:29:47;;;;;;;8.75;4.00;;;;;;;21.84;40.25;100122.19;4953569;28;20047;-77
2023/10/13 14:32:15;;;;;;;7.07;3.53;;;;;;;21.82;39.97;100117.94;4958357;28;20113;-76
2023/10/13 14:34:45;;;;;;;8.20;3.60;;;;;;;21.82;40.08;100126.28;4970288;28;20222;-76
2023/10/13 14:37:13;;;;;;;10.80;4.43;;;;;;;21.80;39.78;100117.28;4958213;28;20055;-78
2023/10/13 14:39:43;;;;;;;7.18;3.40;;;;;;;21.80;39.51;100108.94;4965987;28;20174;-78
2023/10/13 14:42:11;;;;;;;8.02;4.03;;;;;;;21.76;39.31;100114.13;4952701;28;20067;-77
2023/10/13 14:44:40;;;;;;;7.57;3.60;;;;;;;21.76;39.31;100116.91;4968981;28;20118;-76
2023/10/13 14:47:08;;;;;;;8.38;3.80;;;;;;;21.75;38.98;100101.28;4959787;28;20062;-77
2023/10/13 14:49:37;;;;;;;8.02;4.00;;;;;;;21.74;38.83;100104.28;4968863;28;20158;-77
2023/10/13 14:52:05;;;;;;;8.57;4.15;;;;;;;21.73;38.67;100103.44;4973207;28;20485;-78
2023/10/13 14:54:36;;;;;;;8.80;3.97;;;;;;;21.72;38.69;100110.06;4955269;28;20065;-77
2023/10/13 14:57:05;;;;;;;9.73;4.32;;;;;;;21.73;38.26;100100.63;4957970;28;20081;-76
2023/10/13 14:59:38;;;;;;;8.57;3.72;;;;;;;21.69;38.33;100093.78;4955483;28;20067;-77
2023/10/13 15:02:07;;;;;;;7.30;3.70;;;;;;;21.70;38.46;100106.66;4955649;28;20675;-79
2023/10/13 15:04:35;;;;;;;8.25;4.03;;;;;;;21.69;38.15;100085.44;4967241;28;20047;-78
2023/10/13 15:07:03;;;;;;;6.60;3.92;;;;;;;21.68;38.10;100085.69;4969365;28;20137;-77
2023/10/13 15:09:31;;;;;;;7.93;3.75;;;;;;;21.68;38.00;100088.47;4952847;28;20824;-79
2023/10/13 15:11:59;;;;;;;8.63;3.70;;;;;;;21.67;37.84;100092.34;4952878;28;20057;-79
2023/10/13 15:14:29;;;;;;;6.85;4.00;;;;;;;21.69;37.71;100098.50;4951158;28;20066;-78
2023/10/13 15:17:00;;;;;;;9.50;4.10;;;;;;;21.67;37.84;100078.41;4953782;28;20116;-78
2023/10/13 15:19:29;;;;;;;7.93;4.10;;;;;;;21.64;37.72;100076.06;4952066;28;20039;-77
2023/10/13 15:21:59;;;;;;;8.82;3.78;;;;;;;21.66;37.55;100087.84;4984448;28;20121;-76
2023/10/13 15:24:27;;;;;;;8.48;3.65;;;;;;;21.65;37.63;100086.13;4968645;28;20056;-78
2023/10/13 15:27:02;;;;;;;6.88;3.97;;;;;;;21.64;37.43;100082.50;4953868;28;20069;-77
2023/10/13 15:29:36;;;;;;;7.65;3.50;;;;;;;21.67;37.04;100082.06;4951331;28;20508;-77
2023/10/13 15:32:41;;;;;;;7.07;3.72;;;;;;;21.63;37.36;100075.22;4967450;28;20145;-77
2023/10/13 15:34:55;;;;;;;7.70;3.88;;;;;;;21.63;37.39;100097.50;4929409;28;20062;-77
2023/10/13 15:37:25;;;;;;;7.57;3.70;;;;;;;21.64;37.28;100084.44;4951223;28;20081;-77
2023/10/13 15:39:53;;;;;;;6.55;4.03;;;;;;;21.63;37.62;100086.34;4953870;28;20140;-77
2023/10/13 15:42:21;;;;;;;8.50;4.25;;;;;;;21.63;37.35;100083.56;4956297;28;20341;-76
2023/10/13 15:44:51;;;;;;;8.25;3.90;;;;;;;21.65;37.17;100077.78;4953643;28;20051;-75
2023/10/13 15:47:19;;;;;;;8.02;3.85;;;;;;;21.62;37.01;100081.00;4952899;28;20055;-75
2023/10/13 15:49:50;;;;;;;9.15;3.97;;;;;;;21.60;36.90;100074.84;4986317;28;20614;-77
2023/10/13 15:52:18;;;;;;;7.75;3.95;;;;;;;21.60;36.81;100080.41;4953304;28;20079;-77
2023/10/13 15:54:47;;;;;;;8.63;3.83;;;;;;;21.59;36.69;100071.19;4950966;28;20773;-76
2023/10/13 15:57:17;;;;;;;7.50;4.25;;;;;;;21.59;36.73;100071.19;4948308;28;20051;-75
2023/10/13 15:59:46;;;;;;;8.50;4.10;;;;;;;21.59;36.64;100067.56;4949283;28;20067;-76
2023/10/13 16:02:23;;;;;;;7.88;4.15;;;;;;;21.60;36.29;100066.47;4953266;28;21387;-75
2023/10/13 16:04:54;;;;;;;6.85;3.63;;;;;;;21.57;36.64;100059.41;4948762;28;20082;-75
2023/10/13 16:07:22;;;;;;;6.47;3.78;;;;;;;21.56;36.67;100068.84;4952560;28;20047;-74
2023/10/13 16:09:57;;;;;;;8.27;3.85;;;;;;;21.56;36.74;100057.72;4955267;28;20585;-77
2023/10/13 16:12:28;;;;;;;7.13;4.05;;;;;;;21.56;36.47;100056.84;4964682;28;20051;-78
2023/10/13 16:14:56;;;;;;;8.25;4.45;;;;;;;21.54;36.29;100057.06;4954759;28;20051;-75
2023/10/13 16:17:26;;;;;;;6.65;3.88;;;;;;;21.56;36.49;100054.94;4946501;28;20093;-75
2023/10/13 16:19:54;;;;;;;6.68;4.10;;;;;;;21.53;36.69;100063.72;4949447;28;20082;-76
2023/10/13 16:22:22;;;;;;;6.97;3.72;;;;;;;21.52;36.74;100062.88;4960482;28;20488;-75
2023/10/13 16:24:50;;;;;;;7.90;4.15;;;;;;;21.52;36.54;100059.22;4960182;28;20058;-76
2023/10/13 16:27:22;;;;;;;7.13;3.40;;;;;;;21.49;36.52;100049.41;4943676;28;20051;-76
2023/10/13 16:29:50;;;;;;;6.70;3.80;;;;;;;21.50;36.32;100056.69;4943046;28;20055;-76
2023/10/13 16:32:19;;;;;;;8.80;3.60;;;;;;;21.50;36.49;100053.91;4961717;28;20059;-79
2023/10/13 16:34:49;;;;;;;8.20;3.47;;;;;;;21.51;36.06;100051.97;4945957;28;20078;-76
2023/10/13 16:37:17;;;;;;;5.82;3.45;;;;;;;21.48;36.43;100053.28;4943467;28;20264;-76
2023/10/13 16:39:45;;;;;;;8.50;4.05;;;;;;;21.47;36.35;100042.34;4945846;28;20309;-76
2023/10/13 16:42:14;;;;;;;6.60;3.78;;;;;;;21.46;36.54;100037.88;4960552;28;20134;-77
2023/10/13 16:44:42;;;;;;;5.85;3.67;;;;;;;21.45;36.40;100056.50;4945117;28;20047;-77
2023/10/13 16:47:13;;;;;;;5.72;3.72;;;;;;;21.45;36.45;100050.06;4944961;28;20502;-77
2023/10/13 16:49:43;;;;;;;6.50;3.47;;;;;;;21.43;36.51;100038.34;4944376;28;20615;-77
2023/10/13 16:52:12;;;;;;;8.95;3.80;;;;;;;21.43;36.50;100033.63;4946099;28;20499;-78
2023/10/13 16:54:40;;;;;;;6.32;3.88;;;;;;;21.41;36.52;100034.91;4944334;28;20974;-77
2023/10/13 16:57:09;;;;;;;7.75;3.72;;;;;;;21.40;36.88;100030.44;4958740;28;20051;-77
2023/10/13 16:59:37;;;;;;;8.45;3.92;;;;;;;21.38;36.58;100032.56;4944697;28;20067;-77
2023/10/13 17:02:05;;;;;;;6.03;3.60;;;;;;;21.37;36.66;100028.94;4961562;28;20042;-78
2023/10/13 17:04:36;;;;;;;6.57;3.53;;;;;;;21.39;36.54;100025.94;4944840;28;20054;-78
2023/10/13 17:07:07;;;;;;;6.75;3.90;;;;;;;21.34;36.58;100011.84;4960131;28;20078;-78
2023/10/13 17:09:38;;;;;;;7.63;4.03;;;;;;;21.34;36.76;100014.63;4943709;28;20062;-78
2023/10/13 17:12:10;;;;;;;7.03;3.58;;;;;;;21.32;37.09;100005.66;4960402;28;20059;-78
2023/10/13 17:14:40;;;;;;;7.22;3.88;;;;;;;21.28;37.39;100013.59;4943488;28;20137;-78
2023/10/13 17:17:08;;;;;;;6.78;3.50;;;;;;;21.27;37.38;99998.00;4946994;28;20059;-77
2023/10/13 17:19:36;;;;;;;6.22;3.55;;;;;;;21.26;37.76;99998.22;4944536;28;20066;-78
2023/10/13 17:22:04;;;;;;;5.57;3.55;;;;;;;21.24;37.48;99994.75;4946026;28;20384;-78
2023/10/13 17:24:32;;;;;;;6.05;4.00;;;;;;;21.23;37.48;99995.84;4959351;28;20855;-78
2023/10/13 17:27:02;;;;;;;6.80;3.60;;;;;;;21.22;37.45;99997.75;4945068;28;20089;-78
2023/10/13 17:29:30;;;;;;;5.18;3.33;;;;;;;21.18;37.73;99996.53;4976911;28;20061;-78
2023/10/13 17:31:58;;;;;;;6.05;3.58;;;;;;;21.18;37.68;99988.19;4945529;28;20067;-78
2023/10/13 17:34:28;;;;;;;5.85;3.30;;;;;;;21.14;37.69;99987.75;4944467;28;20503;-78
2023/10/13 17:36:58;;;;;;;6.63;3.97;;;;;;;21.12;37.98;99995.47;4945750;28;20510;-78
2023/10/13 17:39:26;;;;;;;6.07;3.20;;;;;;;21.12;37.68;100002.97;4976644;28;20043;-77
2023/10/13 17:41:54;;;;;;;6.53;3.88;;;;;;;21.10;37.77;99999.56;4963096;28;20129;-78
2023/10/13 17:44:23;;;;;;;6.93;3.60;;;;;;;21.11;38.22;99995.69;4948017;28;20051;-77
2023/10/13 17:46:52;;;;;;;5.53;3.58;;;;;;;21.08;38.19;99996.16;4946616;28;20051;-77
2023/10/13 17:49:21;;;;;;;5.97;3.50;;;;;;;21.06;38.62;99992.72;4945534;28;20051;-78
2023/10/13 17:51:49;;;;;;;6.32;3.38;;;;;;;21.04;38.37;99994.88;4948910;28;20047;-77
2023/10/13 17:54:17;;;;;;;5.72;3.67;;;;;;;21.02;38.56;99992.34;4947931;28;20477;-78
2023/10/13 17:56:45;;;;;;;14.57;3.83;;;;;;;20.99;38.81;99989.16;4948069;28;20058;-78
2023/10/13 17:59:13;;;;;;;5.85;3.38;;;;;;;20.97;38.66;99986.59;4961701;28;20147;-78
2023/10/13 18:01:42;;;;;;;6.70;3.75;;;;;;;20.98;38.98;99981.88;4946538;28;20139;-77
2023/10/13 18:04:10;;;;;;;6.30;3.88;;;;;;;20.94;38.81;99980.63;4947086;28;20359;-77
2023/10/13 18:06:43;;;;;;;5.95;3.70;;;;;;;20.90;39.33;99962.66;4945694;28;20189;-77
2023/10/13 18:09:12;;;;;;;8.18;3.70;;;;;;;20.89;39.45;99961.81;4947602;28;20077;-78
2023/10/13 18:11:42;;;;;;;6.10;3.47;;;;;;;20.86;39.26;99962.25;4947008;28;20498;-77
2023/10/13 18:14:11;;;;;;;5.43;3.67;;;;;;;20.84;39.54;99961.66;4948057;28;20312;-78
2023/10/13 18:16:41;;;;;;;7.90;3.80;;;;;;;20.83;39.51;99964.66;4946448;28;20572;-77
2023/10/13 18:19:11;;;;;;;7.25;4.15;;;;;;;20.82;39.26;99965.72;4944718;28;20137;-78
2023/10/13 18:21:39;;;;;;;7.45;3.63;;;;;;;20.77;39.36;99961.69;4947909;28;20055;-78
2023/10/13 18:24:08;;;;;;;7.40;3.80;;;;;;;20.76;39.18;99950.78;4945667;28;20061;-78
2023/10/13 18:26:36;;;;;;;6.25;3.70;;;;;;;20.74;39.31;99950.16;4945805;28;20145;-77
2023/10/13 18:29:04;;;;;;;7.00;3.72;;;;;;;20.73;39.09;99940.09;4948184;28;20670;-77
2023/10/13 18:31:32;;;;;;;6.32;3.78;;;;;;;20.72;39.26;99938.38;4946340;28;20055;-77
2023/10/13 18:34:01;;;;;;;6.38;3.45;;;;;;;20.70;39.18;99935.81;4945340;28;20651;-77
2023/10/13 18:36:31;;;;;;;6.65;4.03;;;;;;;20.70;39.22;99938.59;4947017;28;20442;-77
2023/10/13 18:39:00;;;;;;;6.57;3.60;;;;;;;20.68;39.35;99935.22;4947061;28;20112;-78
2023/10/13 18:41:30;;;;;;;6.65;3.78;;;;;;;20.68;39.24;99942.72;4947379;28;20059;-77
2023/10/13 18:43:59;;;;;;;9.48;3.80;;;;;;;20.68;39.31;99939.94;4947278;28;20453;-77
2023/10/13 18:46:28;;;;;;;7.55;3.80;;;;;;;20.67;39.41;99933.50;4946632;28;20047;-78
2023/10/13 18:48:58;;;;;;;6.50;4.10;;;;;;;20.67;39.29;99924.31;4946149;28;20058;-77
2023/10/13 18:51:26;;;;;;;5.90;3.63;;;;;;;20.67;39.34;99921.53;4947332;28;20055;-77
2023/10/13 18:53:56;;;;;;;9.38;3.80;;;;;;;20.69;39.29;99919.41;4946600;28;20158;-78
2023/10/13 18:56:25;;;;;;;7.50;4.20;;;;;;;20.66;39.17;99923.47;4946903;28;20086;-77
2023/10/13 18:58:54;;;;;;;8.68;3.63;;;;;;;20.67;39.20;99918.75;4946557;28;20466;-78
2023/10/13 19:01:25;;;;;;;6.68;3.45;;;;;;;20.66;39.43;99906.78;4947614;28;20077;-78
2023/10/13 19:03:55;;;;;;;7.25;3.90;;;;;;;20.67;39.56;99902.94;4947434;28;20093;-77
2023/10/13 19:06:24;;;;;;;9.98;4.57;;;;;;;20.67;39.16;99893.72;4946801;28;20130;-77
2023/10/13 19:08:52;;;;;;;8.40;3.88;;;;;;;20.66;39.51;99878.13;4946227;28;20066;-78
2023/10/13 19:11:21;;;;;;;6.55;4.03;;;;;;;20.67;39.60;99868.72;4945609;28;20518;-78
2023/10/13 19:13:52;;;;;;;7.93;3.78;;;;;;;20.66;39.54;99869.78;4947345;28;20174;-78
2023/10/13 19:16:25;;;;;;;7.75;3.65;;;;;;;20.66;39.43;99875.34;4947570;28;20059;-78
2023/10/13 19:18:58;;;;;;;6.50;3.58;;;;;;;20.64;39.49;99881.13;4945790;28;21098;-78
2023/10/13 19:21:27;;;;;;;7.65;3.88;;;;;;;20.64;39.42;99874.72;4945932;28;20073;-78
2023/10/13 19:23:55;;;;;;;6.95;3.70;;;;;;;20.62;39.32;99862.94;4946154;28;20569;-78
2023/10/13 19:26:26;;;;;;;9.05;3.83;;;;;;;20.65;39.32;99868.94;4947505;28;20457;-77
2023/10/13 19:28:56;;;;;;;7.88;4.00;;;;;;;20.60;39.47;99854.88;4945753;28;20154;-77
2023/10/13 19:31:26;;;;;;;9.00;4.10;;;;;;;20.61;39.37;99853.75;4944567;28;20141;-77
2023/10/13 19:33:55;;;;;;;8.02;4.03;;;;;;;20.61;39.28;99834.28;4946017;28;20047;-77
2023/10/13 19:36:23;;;;;;;9.75;4.50;;;;;;;20.60;39.43;99827.06;4945367;28;20053;-77
2023/10/13 19:38:52;;;;;;;8.75;4.43;;;;;;;20.60;39.67;99824.28;4945560;28;21304;-77
2023/10/13 19:41:25;;;;;;;8.20;4.28;;;;;;;20.60;39.46;99832.63;4947137;28;20055;-77
2023/10/13 19:43:56;;;;;;;9.68;3.85;;;;;;;20.61;39.61;99856.53;4947536;28;20105;-77
2023/10/13 19:46:26;;;;;;;10.25;4.60;;;;;;;20.62;39.88;99862.94;4946583;28;20043;-76
2023/10/13 19:48:54;;;;;;;9.68;4.35;;;;;;;20.59;40.00;99861.50;4944523;28;20399;-76
2023/10/13 19:51:25;;;;;;;8.48;4.30;;;;;;;20.60;39.82;99862.34;4946851;28;20069;-75
2023/10/13 19:53:55;;;;;;;9.45;4.28;;;;;;;20.57;40.19;99846.06;4946272;28;20137;-75
2023/10/13 19:56:23;;;;;;;8.25;4.47;;;;;;;20.56;40.48;99856.34;4945950;28;20121;-75
2023/10/13 19:58:52;;;;;;;10.13;4.25;;;;;;;20.57;40.49;99852.47;4945195;28;20079;-76
2023/10/13 20:01:23;;;;;;;6.97;4.18;;;;;;;20.57;41.03;99833.03;4947836;28;20387;-77
2023/10/13 20:03:54;;;;;;;9.27;4.00;;;;;;;20.51;40.97;99820.03;4943397;28;20138;-76